Time;durP1;ratioP1;P1;durP2;ratioP2;P2;SDS_P1;SDS_P2;PMS_P1;PMS_P2;Temp;Humidity;BMP_temperature;BMP_pressure;BME280_temperature;BME280_humidity;BME280_pressure;Samples;Min_cycle;Max_cycle;Signal;HPM_P1;HPM_P2
2023/09/01 00:01:00;;;;;;;;;;;;;;;27.96;50.58;101084.34;106763;1274;25469;-50
2023/09/01 00:03:45;;;;;;;;;;;;;;;27.93;51.03;101090.33;106840;1267;22524;-50
2023/09/01 00:06:14;;;;;;;;;;;;;;;27.88;51.17;101091.61;106858;1269;25393;-50
2023/09/01 00:08:40;;;;;;;;;;;;;;;27.82;50.84;101090.88;106791;1259;25246;-50
2023/09/01 00:11:07;;;;;;;;;;;;;;;27.77;51.12;101094.59;106790;1259;25322;-50
2023/09/01 00:13:34;;;;;;;;;;;;;;;27.74;51.65;101094.71;106093;1264;1002540;-50
2023/09/01 00:16:02;;;;;;;;;;;;;;;27.70;52.00;101098.59;106856;1262;25337;-50
2023/09/01 00:18:30;;;;;;;;;;;;;;;27.67;52.31;101101.89;106769;1260;25302;-50
2023/09/01 00:20:58;;;;;;;;;;;;;;;27.64;52.51;101100.75;106783;1259;22521;-49
2023/09/01 00:23:25;;;;;;;;;;;;;;;27.61;52.45;101101.70;106790;1259;25296;-50
2023/09/01 00:25:53;;;;;;;;;;;;;;;27.59;52.58;101110.09;106886;1260;25340;-50
2023/09/01 00:28:20;;;;;;;;;;;;;;;27.58;52.39;101109.86;106849;1256;25313;-55
2023/09/01 00:30:54;;;;;;;;;;;;;;;27.57;52.36;101102.05;106796;1267;24377;-49
2023/09/01 00:33:22;;;;;;;;;;;;;;;27.59;52.33;101101.34;106761;1262;24365;-50
2023/09/01 00:35:49;;;;;;;;;;;;;;;27.61;52.01;101099.91;106536;1262;389955;-50
2023/09/01 00:38:17;;;;;;;;;;;;;;;27.62;52.15;101099.32;106538;1264;25411;-51
2023/09/01 00:40:43;;;;;;;;;;;;;;;27.63;51.92;101102.07;106796;1268;25306;-50
2023/09/01 00:43:10;;;;;;;;;;;;;;;27.64;51.56;101101.50;106796;1269;24205;-53
2023/09/01 00:45:38;;;;;;;;;;;;;;;27.64;51.28;101099.31;106735;1260;25465;-50
2023/09/01 00:48:05;;;;;;;;;;;;;;;27.64;51.19;101096.80;106677;1262;25367;-50
2023/09/01 00:50:33;;;;;;;;;;;;;;;27.64;50.75;101087.91;106706;1259;22508;-50
2023/09/01 00:53:00;;;;;;;;;;;;;;;27.64;50.93;101079.69;106783;1262;25308;-49
2023/09/01 00:55:27;;;;;;;;;;;;;;;27.65;50.96;101084.09;106774;1256;25465;-50
2023/09/01 00:57:54;;;;;;;;;;;;;;;27.62;50.27;101096.77;106785;1263;25457;-50
2023/09/01 01:00:21;;;;;;;;;;;;;;;27.60;50.26;101097.21;106854;1269;25469;-50
2023/09/01 01:02:49;;;;;;;;;;;;;;;27.58;50.31;101103.56;106782;1268;24182;-50
2023/09/01 01:05:16;;;;;;;;;;;;;;;27.57;50.72;101108.35;106778;1270;25376;-50
2023/09/01 01:08:00;;;;;;;;;;;;;;;27.56;50.93;101115.88;106445;1262;25344;-50
2023/09/01 01:10:30;;;;;;;;;;;;;;;27.55;50.72;101117.77;106659;1271;25351;-51
2023/09/01 01:12:58;;;;;;;;;;;;;;;27.52;50.42;101118.77;106753;1266;25380;-50
2023/09/01 01:15:26;;;;;;;;;;;;;;;27.49;50.51;101118.15;106804;1268;25306;-50
2023/09/01 01:17:53;;;;;;;;;;;;;;;27.46;50.75;101124.77;106799;1264;25490;-51
2023/09/01 01:20:57;;;;;;;;;;;;;;;27.46;51.20;101131.43;106801;1269;24175;-50
2023/09/01 01:23:24;;;;;;;;;;;;;;;27.45;51.36;101136.23;106134;1266;25325;-54
2023/09/01 01:25:51;;;;;;;;;;;;;;;27.43;51.16;101138.41;106235;1265;25334;-52
2023/09/01 01:28:19;;;;;;;;;;;;;;;27.42;51.24;101143.33;106431;1262;25268;-50
2023/09/01 01:30:49;;;;;;;;;;;;;;;27.40;51.14;101145.23;106368;1278;25210;-50
2023/09/01 01:33:34;;;;;;;;;;;;;;;27.39;51.05;101151.03;106335;1275;25396;-50
2023/09/01 01:36:01;;;;;;;;;;;;;;;27.40;51.25;101150.77;106338;1262;25319;-50
2023/09/01 01:38:29;;;;;;;;;;;;;;;27.40;50.97;101152.39;106345;1265;25345;-50
2023/09/01 01:41:09;;;;;;;;;;;;;;;27.40;51.20;101150.42;106318;1268;25344;-49
2023/09/01 01:43:37;;;;;;;;;;;;;;;27.39;51.22;101148.67;106441;1265;25354;-50
2023/09/01 01:46:05;;;;;;;;;;;;;;;27.39;51.20;101148.17;106295;1278;25392;-51
2023/09/01 01:48:36;;;;;;;;;;;;;;;27.38;51.21;101149.27;106279;1278;25388;-51
2023/09/01 01:51:05;;;;;;;;;;;;;;;27.38;51.28;101149.48;106169;1272;22541;-50
2023/09/01 01:53:33;;;;;;;;;;;;;;;27.39;51.40;101158.69;106263;1274;24203;-51
2023/09/01 01:56:01;;;;;;;;;;;;;;;27.40;51.32;101168.05;106469;1266;25325;-49
2023/09/01 01:58:28;;;;;;;;;;;;;;;27.40;51.45;101171.08;106679;1272;25462;-51
2023/09/01 02:00:55;;;;;;;;;;;;;;;27.41;51.88;101168.36;106765;1268;25411;-50
2023/09/01 02:03:22;;;;;;;;;;;;;;;27.41;51.76;101164.61;106510;1262;22677;-50
2023/09/01 02:05:49;;;;;;;;;;;;;;;27.40;51.41;101165.54;106755;1269;25427;-50
2023/09/01 02:08:20;;;;;;;;;;;;;;;27.38;51.41;101161.59;106691;1259;25191;-50
2023/09/01 02:10:48;;;;;;;;;;;;;;;27.38;51.65;101161.59;106847;1268;25466;-49
2023/09/01 02:13:15;;;;;;;;;;;;;;;27.38;51.52;101161.98;106806;1269;25343;-50
2023/09/01 02:15:52;;;;;;;;;;;;;;;27.37;51.29;101161.35;106794;1260;25344;-50
2023/09/01 02:18:19;;;;;;;;;;;;;;;27.35;51.30;101167.05;106784;1262;24191;-50
2023/09/01 02:20:46;;;;;;;;;;;;;;;27.33;51.52;101168.47;106742;1268;25330;-49
2023/09/01 02:23:16;;;;;;;;;;;;;;;27.31;51.69;101174.49;106875;1268;25296;-50
2023/09/01 02:25:44;;;;;;;;;;;;;;;27.30;51.43;101174.38;106753;1259;24225;-49
2023/09/01 02:28:11;;;;;;;;;;;;;;;27.28;51.29;101177.02;106797;1269;25465;-49
2023/09/01 02:30:38;;;;;;;;;;;;;;;27.28;51.68;101177.63;106841;1256;25320;-50
2023/09/01 02:33:05;;;;;;;;;;;;;;;27.27;51.96;101173.26;106853;1265;22633;-49
2023/09/01 02:35:33;;;;;;;;;;;;;;;27.25;51.89;101170.32;106862;1269;23346;-50
2023/09/01 02:38:00;;;;;;;;;;;;;;;27.23;51.88;101168.08;106735;1256;25347;-59
2023/09/01 02:40:27;;;;;;;;;;;;;;;27.20;52.00;101167.35;106531;1269;25557;-49
2023/09/01 02:42:54;;;;;;;;;;;;;;;27.19;52.01;101161.77;106703;1256;25344;-51
2023/09/01 02:45:21;;;;;;;;;;;;;;;27.18;51.98;101163.83;106655;1260;23874;-52
2023/09/01 02:47:48;;;;;;;;;;;;;;;27.18;52.11;101172.59;106663;1256;25347;-50
2023/09/01 02:50:15;;;;;;;;;;;;;;;27.17;52.07;101179.58;106682;1263;24192;-52
2023/09/01 02:52:42;;;;;;;;;;;;;;;27.18;52.00;101179.71;106457;1262;22518;-51
2023/09/01 02:55:09;;;;;;;;;;;;;;;27.18;52.14;101184.35;106737;1263;25344;-51
2023/09/01 02:57:36;;;;;;;;;;;;;;;27.15;52.24;101183.49;106841;1269;25455;-51
2023/09/01 03:00:21;;;;;;;;;;;;;;;27.13;51.99;101184.96;106749;1268;25437;-50
2023/09/01 03:02:50;;;;;;;;;;;;;;;27.10;52.23;101183.08;106864;1263;25465;-50
2023/09/01 03:05:17;;;;;;;;;;;;;;;27.07;52.39;101189.02;106790;1267;25249;-50
2023/09/01 03:07:44;;;;;;;;;;;;;;;27.05;52.41;101195.78;106749;1259;25392;-58
2023/09/01 03:10:11;;;;;;;;;;;;;;;27.05;52.60;101193.98;106574;1270;25315;-50
2023/09/01 03:12:39;;;;;;;;;;;;;;;27.08;52.64;101197.61;106827;1262;25396;-51
2023/09/01 03:15:07;;;;;;;;;;;;;;;26.98;52.81;101199.20;106673;1276;25406;-50
2023/09/01 03:17:34;;;;;;;;;;;;;;;26.89;53.06;101202.48;106546;1265;25690;-49
2023/09/01 03:20:04;;;;;;;;;;;;;;;26.86;53.01;101207.34;106879;1260;25324;-50
2023/09/01 03:22:31;;;;;;;;;;;;;;;26.85;53.01;101212.20;106830;1259;22854;-52
2023/09/01 03:24:58;;;;;;;;;;;;;;;26.86;53.04;101219.60;106755;1262;25455;-51
2023/09/01 03:27:25;;;;;;;;;;;;;;;26.88;52.93;101225.71;106813;1262;25306;-51
2023/09/01 03:29:53;;;;;;;;;;;;;;;26.89;52.75;101231.09;106806;1259;24658;-55
2023/09/01 03:32:22;;;;;;;;;;;;;;;26.89;52.71;101231.66;106783;1270;24465;-54
2023/09/01 03:34:48;;;;;;;;;;;;;;;26.89;52.88;101235.20;106711;1272;22508;-51
2023/09/01 03:37:16;;;;;;;;;;;;;;;26.89;53.48;101232.55;106716;1261;25344;-50
2023/09/01 03:39:43;;;;;;;;;;;;;;;26.89;53.99;101235.54;106784;1264;25334;-50
2023/09/01 03:42:09;;;;;;;;;;;;;;;26.92;54.51;101238.91;106536;1278;25454;-51
2023/09/01 03:44:37;;;;;;;;;;;;;;;26.93;54.85;101239.67;106763;1259;25302;-51
2023/09/01 03:47:04;;;;;;;;;;;;;;;26.96;55.02;101244.80;106459;1265;25453;-50
2023/09/01 03:49:33;;;;;;;;;;;;;;;27.00;54.98;101247.33;106702;1269;25392;-51
2023/09/01 03:52:00;;;;;;;;;;;;;;;27.07;54.79;101249.00;106762;1266;22561;-50
2023/09/01 03:54:27;;;;;;;;;;;;;;;27.23;54.37;101252.45;106681;1263;24209;-51
2023/09/01 03:56:54;;;;;;;;;;;;;;;27.27;54.28;101255.86;106845;1270;23293;-50
2023/09/01 03:59:21;;;;;;;;;;;;;;;27.31;54.22;101255.73;106521;1272;25306;-50
2023/09/01 04:01:48;;;;;;;;;;;;;;;27.33;54.10;101256.64;106724;1262;25376;-50
2023/09/01 04:04:16;;;;;;;;;;;;;;;27.33;54.04;101257.48;106634;1275;25323;-50
2023/09/01 04:06:44;;;;;;;;;;;;;;;27.31;54.19;101260.48;106798;1269;25466;-50
2023/09/01 04:09:11;;;;;;;;;;;;;;;27.30;54.16;101259.67;106631;1273;25334;-51
2023/09/01 04:11:37;;;;;;;;;;;;;;;27.28;54.18;101263.08;106833;1259;25324;-51
2023/09/01 04:14:06;;;;;;;;;;;;;;;27.24;54.01;101260.03;106597;1270;22634;-51
2023/09/01 04:16:33;;;;;;;;;;;;;;;27.20;54.14;101261.97;106896;1259;25330;-50
2023/09/01 04:19:00;;;;;;;;;;;;;;;27.15;54.52;101267.91;106841;1262;25415;-54
2023/09/01 04:21:28;;;;;;;;;;;;;;;27.02;55.19;101269.78;106780;1265;25321;-51
2023/09/01 04:23:55;;;;;;;;;;;;;;;27.00;55.46;101271.36;106861;1265;25293;-50
2023/09/01 04:26:22;;;;;;;;;;;;;;;27.02;55.48;101269.54;106517;1272;25309;-51
2023/09/01 04:28:49;;;;;;;;;;;;;;;27.07;55.41;101273.20;106732;1259;25445;-54
2023/09/01 04:31:17;;;;;;;;;;;;;;;27.11;55.24;101277.52;106762;1269;24372;-51
2023/09/01 04:33:45;;;;;;;;;;;;;;;27.16;55.14;101278.71;106773;1259;25296;-51
2023/09/01 04:36:12;;;;;;;;;;;;;;;27.20;54.99;101284.98;106898;1259;25334;-49
2023/09/01 04:38:41;;;;;;;;;;;;;;;27.23;54.86;101288.11;106462;1275;25465;-50
2023/09/01 04:41:08;;;;;;;;;;;;;;;27.26;54.80;101285.73;106851;1260;24182;-50
2023/09/01 04:43:35;;;;;;;;;;;;;;;27.29;54.70;101284.77;106754;1269;25306;-51
2023/09/01 04:46:02;;;;;;;;;;;;;;;27.31;54.66;101282.63;106738;1270;25305;-51
2023/09/01 04:48:30;;;;;;;;;;;;;;;27.31;54.69;101282.08;106557;1269;24188;-52
2023/09/01 04:51:00;;;;;;;;;;;;;;;27.30;54.63;101287.15;106550;1269;24454;-50
2023/09/01 04:53:28;;;;;;;;;;;;;;;27.31;54.59;101289.58;106491;1259;22504;-51
2023/09/01 04:55:55;;;;;;;;;;;;;;;27.34;54.56;101285.60;106668;1256;22555;-50
2023/09/01 04:58:23;;;;;;;;;;;;;;;27.36;54.70;101289.88;106384;1265;25449;-50
2023/09/01 05:00:51;;;;;;;;;;;;;;;27.33;55.11;101292.59;106673;1262;24206;-50
2023/09/01 05:03:19;;;;;;;;;;;;;;;27.27;55.73;101292.41;106299;1262;25353;-50
2023/09/01 05:05:47;;;;;;;;;;;;;;;27.19;56.13;101292.70;106460;1270;25381;-51
2023/09/01 05:08:14;;;;;;;;;;;;;;;27.11;56.71;101294.25;106779;1271;22662;-51
2023/09/01 05:10:41;;;;;;;;;;;;;;;27.07;57.18;101295.17;106724;1270;25393;-51
2023/09/01 05:13:08;;;;;;;;;;;;;;;27.04;57.53;101296.27;106766;1262;25308;-51
2023/09/01 05:15:35;;;;;;;;;;;;;;;26.87;58.13;101296.47;106756;1274;25392;-51
2023/09/01 05:18:03;;;;;;;;;;;;;;;26.78;58.46;101303.59;106794;1268;25343;-52
2023/09/01 05:20:30;;;;;;;;;;;;;;;26.73;58.64;101302.90;106821;1259;22596;-51
2023/09/01 05:22:58;;;;;;;;;;;;;;;26.83;58.55;101305.48;106812;1269;25341;-51
2023/09/01 05:25:24;;;;;;;;;;;;;;;26.83;58.51;101312.05;106709;1266;22615;-51
2023/09/01 05:27:52;;;;;;;;;;;;;;;26.81;58.68;101311.20;106618;1275;25445;-50
2023/09/01 05:30:19;;;;;;;;;;;;;;;26.78;58.77;101316.59;106771;1262;25431;-51
2023/09/01 05:32:46;;;;;;;;;;;;;;;26.76;58.53;101317.30;106812;1259;25382;-51
2023/09/01 05:35:13;;;;;;;;;;;;;;;26.74;58.45;101318.92;106787;1272;25431;-51
2023/09/01 05:37:40;;;;;;;;;;;;;;;26.74;58.48;101319.96;106773;1266;25454;-50
2023/09/01 05:40:08;;;;;;;;;;;;;;;26.77;58.18;101324.71;106611;1267;25334;-50
2023/09/01 05:42:35;;;;;;;;;;;;;;;26.78;57.88;101323.14;106785;1267;25305;-51
2023/09/01 05:45:02;;;;;;;;;;;;;;;26.80;57.67;101329.05;106741;1269;25348;-51
2023/09/01 05:47:32;;;;;;;;;;;;;;;26.83;57.50;101330.63;106841;1263;22658;-50
2023/09/01 05:49:59;;;;;;;;;;;;;;;26.84;57.19;101328.73;106746;1269;25343;-50
2023/09/01 05:52:26;;;;;;;;;;;;;;;26.86;57.17;101333.55;106701;1263;25396;-50
2023/09/01 05:54:53;;;;;;;;;;;;;;;26.87;57.27;101332.98;106697;1258;23894;-50
2023/09/01 05:57:20;;;;;;;;;;;;;;;26.89;57.08;101335.48;106785;1262;25308;-50
2023/09/01 05:59:47;;;;;;;;;;;;;;;26.91;57.14;101338.30;106649;1275;25333;-54
2023/09/01 06:02:14;;;;;;;;;;;;;;;26.95;56.89;101338.38;106718;1269;25413;-50
2023/09/01 06:04:41;;;;;;;;;;;;;;;26.99;56.63;101339.79;106887;1269;25465;-51
2023/09/01 06:07:08;;;;;;;;;;;;;;;27.02;56.53;101340.24;106777;1259;25334;-51
2023/09/01 06:09:36;;;;;;;;;;;;;;;27.05;56.22;101345.69;106820;1263;25306;-50
2023/09/01 06:12:03;;;;;;;;;;;;;;;27.08;56.32;101342.23;106744;1266;25391;-50
2023/09/01 06:14:30;;;;;;;;;;;;;;;27.12;56.12;101347.08;106799;1260;25393;-53
2023/09/01 06:16:57;;;;;;;;;;;;;;;27.14;56.06;101347.63;106622;1259;25383;-50
2023/09/01 06:19:24;;;;;;;;;;;;;;;27.15;56.35;101347.70;106679;1264;25340;-50
2023/09/01 06:21:51;;;;;;;;;;;;;;;27.18;56.65;101350.17;106620;1272;24201;-52
2023/09/01 06:24:18;;;;;;;;;;;;;;;27.24;56.57;101355.20;106807;1270;23890;-50
2023/09/01 06:26:45;;;;;;;;;;;;;;;27.29;56.53;101359.19;106710;1274;23842;-52
2023/09/01 06:29:12;;;;;;;;;;;;;;;27.35;56.51;101357.29;106760;1264;22515;-50
2023/09/01 06:31:39;;;;;;;;;;;;;;;27.39;56.40;101356.25;106824;1272;23894;-51
2023/09/01 06:34:06;;;;;;;;;;;;;;;27.44;56.34;101354.14;106830;1260;24008;-51
2023/09/01 06:36:33;;;;;;;;;;;;;;;27.46;56.13;101353.91;106812;1276;25385;-50
2023/09/01 06:39:00;;;;;;;;;;;;;;;27.49;56.06;101358.83;106803;1270;23846;-50
2023/09/01 06:41:26;;;;;;;;;;;;;;;27.52;56.10;101361.67;106789;1270;22763;-51
2023/09/01 06:43:53;;;;;;;;;;;;;;;27.55;56.22;101368.89;106815;1259;22527;-51
2023/09/01 06:46:20;;;;;;;;;;;;;;;27.57;56.15;101364.77;106618;1263;25305;-50
2023/09/01 06:48:48;;;;;;;;;;;;;;;27.60;56.10;101365.55;106739;1270;24226;-52
2023/09/01 06:51:16;;;;;;;;;;;;;;;27.63;55.80;101360.73;106870;1271;23374;-51
2023/09/01 06:53:42;;;;;;;;;;;;;;;27.63;55.77;101359.43;106682;1274;24224;-51
2023/09/01 06:56:10;;;;;;;;;;;;;;;27.66;55.85;101357.09;106980;1272;24224;-51
2023/09/01 06:58:36;;;;;;;;;;;;;;;27.70;55.72;101358.20;106788;1270;26214;-52
2023/09/01 07:01:08;;;;;;;;;;;;;;;27.72;55.53;101359.60;106790;1275;25327;-50
2023/09/01 07:03:35;;;;;;;;;;;;;;;27.73;55.61;101361.08;106758;1271;26478;-50
2023/09/01 07:06:02;;;;;;;;;;;;;;;27.74;55.25;101363.84;106819;1269;25466;-52
2023/09/01 07:08:29;;;;;;;;;;;;;;;27.76;55.13;101361.72;106473;1268;25315;-51
2023/09/01 07:11:03;;;;;;;;;;;;;;;27.80;55.27;101358.89;106883;1270;25482;-50
2023/09/01 07:13:30;;;;;;;;;;;;;;;27.91;54.97;101364.36;106812;1271;25407;-52
2023/09/01 07:15:57;;;;;;;;;;;;;;;28.02;54.62;101362.70;106791;1259;24238;-50
2023/09/01 07:18:25;;;;;;;;;;;;;;;28.08;54.55;101365.41;106822;1267;22636;-51
2023/09/01 07:20:56;;;;;;;;;;;;;;;28.13;54.25;101363.75;106892;1260;24189;-50
2023/09/01 07:23:23;;;;;;;;;;;;;;;28.25;53.65;101364.69;106739;1267;22655;-50
2023/09/01 07:25:51;;;;;;;;;;;;;;;28.38;53.13;101360.45;106790;1264;25465;-50
2023/09/01 07:28:18;;;;;;;;;;;;;;;28.52;52.24;101360.13;106883;1265;25306;-51
2023/09/01 07:30:45;;;;;;;;;;;;;;;28.63;52.01;101363.98;106894;1265;25392;-52
2023/09/01 07:33:12;;;;;;;;;;;;;;;28.72;51.67;101366.41;106761;1266;23876;-50
2023/09/01 07:35:44;;;;;;;;;;;;;;;28.76;51.22;101363.73;106911;1260;25393;-52
2023/09/01 07:38:11;;;;;;;;;;;;;;;28.92;50.71;101364.98;106804;1270;25334;-54
2023/09/01 07:40:38;;;;;;;;;;;;;;;28.98;50.07;101368.54;106736;1266;25415;-51
2023/09/01 07:43:05;;;;;;;;;;;;;;;28.97;49.92;101368.77;106762;1269;24218;-51
2023/09/01 07:45:32;;;;;;;;;;;;;;;28.96;49.90;101368.40;106624;1263;22511;-51
2023/09/01 07:47:59;;;;;;;;;;;;;;;28.93;49.94;101368.42;106746;1265;25460;-52
2023/09/01 07:50:46;;;;;;;;;;;;;;;28.90;50.06;101372.30;106758;1260;25530;-50
2023/09/01 07:53:13;;;;;;;;;;;;;;;28.89;49.74;101376.48;106751;1263;25334;-51
2023/09/01 07:55:41;;;;;;;;;;;;;;;28.88;49.71;101380.53;106783;1261;24012;-50
2023/09/01 07:58:08;;;;;;;;;;;;;;;28.89;49.46;101384.73;106941;1270;22747;-50
2023/09/01 08:00:39;;;;;;;;;;;;;;;28.90;49.40;101385.66;106785;1270;25393;-51
2023/09/01 08:03:13;;;;;;;;;;;;;;;28.93;49.67;101386.89;106803;1260;25334;-50
2023/09/01 08:05:40;;;;;;;;;;;;;;;28.95;49.64;101389.74;106742;1270;25327;-54
2023/09/01 08:08:08;;;;;;;;;;;;;;;28.97;49.48;101392.02;106634;1276;25316;-50
2023/09/01 08:10:35;;;;;;;;;;;;;;;29.02;49.16;101391.13;106850;1260;25340;-49
2023/09/01 08:13:02;;;;;;;;;;;;;;;29.04;49.33;101389.86;106814;1269;25344;-54
2023/09/01 08:15:29;;;;;;;;;;;;;;;29.04;49.30;101390.58;106775;1266;22520;-50
2023/09/01 08:17:56;;;;;;;;;;;;;;;29.04;49.13;101390.27;106747;1270;24223;-50
2023/09/01 08:20:23;;;;;;;;;;;;;;;29.08;49.26;101388.83;106772;1271;25360;-51
2023/09/01 08:22:50;;;;;;;;;;;;;;;29.08;48.56;101386.06;106909;1270;25316;-52
2023/09/01 08:25:17;;;;;;;;;;;;;;;29.01;48.62;101392.40;106786;1270;25211;-51
2023/09/01 08:27:44;;;;;;;;;;;;;;;28.97;48.75;101395.25;106849;1265;24181;-51
2023/09/01 08:30:13;;;;;;;;;;;;;;;29.04;48.42;101399.70;106903;1270;25325;-50
2023/09/01 08:32:41;;;;;;;;;;;;;;;29.13;48.78;101399.20;106807;1265;25323;-51
2023/09/01 08:35:08;;;;;;;;;;;;;;;29.20;48.58;101407.67;106821;1260;25376;-52
2023/09/01 08:37:35;;;;;;;;;;;;;;;29.26;48.75;101404.12;106790;1258;24230;-50
2023/09/01 08:40:04;;;;;;;;;;;;;;;29.31;48.87;101404.54;106784;1265;25347;-52
2023/09/01 08:42:31;;;;;;;;;;;;;;;29.36;48.46;101403.38;106805;1264;22748;-50
2023/09/01 08:44:59;;;;;;;;;;;;;;;29.39;48.30;101404.16;106791;1270;25305;-56
2023/09/01 08:47:26;;;;;;;;;;;;;;;29.41;48.66;101406.69;106797;1270;22521;-49
2023/09/01 08:49:53;;;;;;;;;;;;;;;29.43;48.45;101411.52;106799;1268;25455;-50
2023/09/01 08:52:20;;;;;;;;;;;;;;;29.46;48.31;101412.35;106807;1261;25406;-50
2023/09/01 08:54:47;;;;;;;;;;;;;;;29.48;48.15;101414.27;106833;1255;25324;-51
2023/09/01 08:57:14;;;;;;;;;;;;;;;29.51;48.26;101415.83;106835;1272;24227;-51
2023/09/01 08:59:42;;;;;;;;;;;;;;;29.52;47.97;101420.35;106744;1270;25468;-51
2023/09/01 09:02:09;;;;;;;;;;;;;;;29.54;47.65;101417.69;106693;1260;22535;-50
2023/09/01 09:04:37;;;;;;;;;;;;;;;29.58;48.00;101411.71;106838;1258;25465;-51
2023/09/01 09:07:12;;;;;;;;;;;;;;;29.62;47.36;101410.81;106548;1260;25296;-51
2023/09/01 09:09:55;;;;;;;;;;;;;;;29.65;47.44;101409.50;106772;1260;25383;-54
2023/09/01 09:12:22;;;;;;;;;;;;;;;29.67;47.13;101410.90;106844;1258;25396;-52
2023/09/01 09:14:52;;;;;;;;;;;;;;;29.69;47.30;101411.44;106636;1263;23146;-51
2023/09/01 09:17:37;;;;;;;;;;;;;;;29.68;47.18;101409.89;106785;1261;23855;-50
2023/09/01 09:20:04;;;;;;;;;;;;;;;29.67;46.92;101409.43;106579;1261;24516;-50
2023/09/01 09:22:48;;;;;;;;;;;;;;;29.68;47.04;101407.98;106246;1263;22505;-50
2023/09/01 09:25:25;;;;;;;;;;;;;;;29.69;47.11;101411.27;106666;1267;25369;-50
2023/09/01 09:27:52;;;;;;;;;;;;;;;29.70;47.13;101411.36;106718;1263;25397;-51
2023/09/01 09:30:19;;;;;;;;;;;;;;;29.71;47.27;101413.95;106694;1257;25337;-51
2023/09/01 09:32:48;;;;;;;;;;;;;;;29.73;47.25;101415.16;106724;1257;24205;-50
2023/09/01 09:35:19;;;;;;;;;;;;;;;29.76;46.86;101416.90;106417;1267;23882;-50
2023/09/01 09:37:47;;;;;;;;;;;;;;;29.79;46.83;101419.63;106826;1272;25353;-50
2023/09/01 09:40:15;;;;;;;;;;;;;;;29.82;46.69;101421.39;106831;1263;25327;-50
2023/09/01 09:42:43;;;;;;;;;;;;;;;29.82;47.07;101415.96;106828;1267;25334;-51
2023/09/01 09:45:24;;;;;;;;;;;;;;;29.85;47.21;101412.16;106738;1261;25480;-50
2023/09/01 09:47:51;;;;;;;;;;;;;;;29.88;46.68;101408.29;106647;1268;25354;-51
2023/09/01 09:50:18;;;;;;;;;;;;;;;29.92;46.59;101414.36;106743;1256;25466;-50
2023/09/01 09:52:49;;;;;;;;;;;;;;;29.95;46.62;101416.39;106579;1261;25323;-51
2023/09/01 09:55:19;;;;;;;;;;;;;;;29.98;46.53;101419.98;106729;1258;25333;-52
2023/09/01 09:57:47;;;;;;;;;;;;;;;30.02;46.12;101421.22;106859;1261;25582;-51
2023/09/01 10:00:14;;;;;;;;;;;;;;;30.06;45.95;101425.32;106824;1270;25327;-49
2023/09/01 10:02:42;;;;;;;;;;;;;;;30.11;45.84;101425.25;106813;1264;25324;-51
2023/09/01 10:05:11;;;;;;;;;;;;;;;30.15;45.58;101425.55;106739;1270;22537;-50
2023/09/01 10:07:38;;;;;;;;;;;;;;;30.17;45.45;101418.91;106807;1270;25344;-51
2023/09/01 10:10:05;;;;;;;;;;;;;;;30.12;45.83;101422.14;106740;1273;25334;-51
2023/09/01 10:12:32;;;;;;;;;;;;;;;30.13;45.78;101415.00;106808;1263;25334;-49
2023/09/01 10:15:03;;;;;;;;;;;;;;;30.18;45.58;101414.94;106684;1270;24227;-50
2023/09/01 10:17:32;;;;;;;;;;;;;;;30.21;45.22;101413.31;106711;1270;23852;-50
2023/09/01 10:20:00;;;;;;;;;;;;;;;30.25;44.79;101409.02;106788;1257;23580;-49
2023/09/01 10:22:27;;;;;;;;;;;;;;;30.30;44.83;101408.27;106794;1256;24220;-50
2023/09/01 10:25:08;;;;;;;;;;;;;;;30.41;45.09;101410.17;106747;1273;25486;-51
2023/09/01 10:27:35;;;;;;;;;;;;;;;30.50;44.80;101410.59;106937;1260;25312;-50
2023/09/01 10:30:18;;;;;;;;;;;;;;;30.56;44.21;101405.58;106849;1259;25401;-50
2023/09/01 10:32:45;;;;;;;;;;;;;;;30.63;43.66;101409.58;106885;1270;24162;-49
2023/09/01 10:35:12;;;;;;;;;;;;;;;30.68;43.27;101408.87;106789;1267;25312;-50
2023/09/01 10:37:41;;;;;;;;;;;;;;;30.74;43.09;101403.13;106782;1260;25305;-49
2023/09/01 10:40:28;;;;;;;;;;;;;;;30.80;42.77;101404.17;106663;1263;25465;-50
2023/09/01 10:42:55;;;;;;;;;;;;;;;30.85;42.54;101398.15;106783;1260;25385;-55
2023/09/01 10:45:22;;;;;;;;;;;;;;;30.89;42.54;101398.48;106745;1257;25296;-50
2023/09/01 10:47:52;;;;;;;;;;;;;;;30.94;41.88;101397.95;106834;1261;25383;-50
2023/09/01 10:50:20;;;;;;;;;;;;;;;30.98;41.17;101394.16;106936;1260;25557;-50
2023/09/01 10:53:06;;;;;;;;;;;;;;;31.03;40.83;101391.56;106815;1267;25343;-49
2023/09/01 10:55:34;;;;;;;;;;;;;;;31.09;40.64;101394.38;106814;1260;22628;-51
2023/09/01 10:58:07;;;;;;;;;;;;;;;31.13;40.24;101388.17;106908;1263;25297;-50
2023/09/01 11:00:34;;;;;;;;;;;;;;;31.19;40.41;101389.23;106810;1260;22642;-50
2023/09/01 11:03:20;;;;;;;;;;;;;;;31.24;39.86;101391.41;106669;1263;24181;-50
2023/09/01 11:05:49;;;;;;;;;;;;;;;31.29;39.51;101388.03;106854;1261;25354;-50
2023/09/01 11:08:18;;;;;;;;;;;;;;;31.35;39.60;101386.73;106854;1256;25379;-51
2023/09/01 11:10:46;;;;;;;;;;;;;;;31.40;39.97;101388.42;106828;1259;25455;-50
2023/09/01 11:13:14;;;;;;;;;;;;;;;31.45;39.19;101383.27;106731;1260;24173;-50
2023/09/01 11:15:44;;;;;;;;;;;;;;;31.49;38.87;101384.05;106739;1261;25503;-50
2023/09/01 11:18:15;;;;;;;;;;;;;;;31.52;38.28;101386.44;106579;1264;25385;-51
2023/09/01 11:20:43;;;;;;;;;;;;;;;31.55;38.02;101383.44;106867;1270;25389;-51
2023/09/01 11:23:09;;;;;;;;;;;;;;;31.59;38.17;101380.70;106816;1259;22655;-57
2023/09/01 11:25:37;;;;;;;;;;;;;;;31.63;38.11;101382.98;106754;1261;23855;-51
2023/09/01 11:28:04;;;;;;;;;;;;;;;31.66;38.22;101376.03;106847;1259;25341;-49
2023/09/01 11:30:31;;;;;;;;;;;;;;;31.70;38.24;101373.19;106911;1261;24021;-50
2023/09/01 11:33:09;;;;;;;;;;;;;;;31.73;37.68;101373.33;106433;1264;25359;-51
2023/09/01 11:35:36;;;;;;;;;;;;;;;31.77;37.49;101374.38;106915;1259;25315;-49
2023/09/01 11:38:03;;;;;;;;;;;;;;;31.81;37.42;101374.90;106786;1259;25395;-49
2023/09/01 11:40:31;;;;;;;;;;;;;;;31.84;37.24;101375.48;106359;1266;23909;-50
2023/09/01 11:42:58;;;;;;;;;;;;;;;31.86;37.39;101374.20;106612;1258;25416;-49
2023/09/01 11:45:25;;;;;;;;;;;;;;;31.87;37.67;101372.51;106533;1267;25408;-52
2023/09/01 11:47:52;;;;;;;;;;;;;;;31.89;37.66;101373.45;106707;1260;24182;-50
2023/09/01 11:50:19;;;;;;;;;;;;;;;31.92;37.01;101368.58;106744;1263;25296;-49
2023/09/01 11:52:50;;;;;;;;;;;;;;;31.93;36.78;101368.64;106697;1262;25344;-50
2023/09/01 11:55:34;;;;;;;;;;;;;;;31.94;36.84;101367.27;106792;1260;25305;-54
2023/09/01 11:58:02;;;;;;;;;;;;;;;31.95;36.80;101368.05;106870;1262;22619;-50
2023/09/01 12:00:34;;;;;;;;;;;;;;;31.97;36.42;101369.31;106532;1264;25316;-50
2023/09/01 12:03:03;;;;;;;;;;;;;;;31.99;36.00;101366.41;106836;1259;25278;-49
2023/09/01 12:05:32;;;;;;;;;;;;;;;32.01;35.57;101372.89;106805;1259;25343;-50
2023/09/01 12:08:02;;;;;;;;;;;;;;;32.02;36.45;101373.10;106832;1267;22860;-51
2023/09/01 12:10:30;;;;;;;;;;;;;;;32.04;35.39;101374.73;106754;1256;22529;-51
2023/09/01 12:13:02;;;;;;;;;;;;;;;31.99;35.44;101374.26;106788;1270;22520;-51
2023/09/01 12:15:29;;;;;;;;;;;;;;;32.09;35.47;101375.80;106662;1270;25334;-51
2023/09/01 12:17:57;;;;;;;;;;;;;;;32.13;35.74;101373.98;106713;1269;24191;-50
2023/09/01 12:20:24;;;;;;;;;;;;;;;32.15;36.35;101376.29;106771;1267;25360;-50
2023/09/01 12:22:51;;;;;;;;;;;;;;;32.16;36.49;101376.73;106415;1264;25449;-49
2023/09/01 12:25:18;;;;;;;;;;;;;;;32.18;35.93;101379.63;106575;1267;25340;-51
2023/09/01 12:27:47;;;;;;;;;;;;;;;32.20;36.10;101375.80;106642;1263;25390;-49
2023/09/01 12:30:14;;;;;;;;;;;;;;;32.21;35.43;101376.80;106858;1256;24195;-51
2023/09/01 12:32:41;;;;;;;;;;;;;;;32.22;35.01;101381.35;106503;1262;25312;-51